KADF

Dexter B Florence Memorial Field Airport

Arkadelphia, Arkansas, USA
METAR KADF 220456Z AUTO 00000KT 10SM CLR 23/23 A2983 RMK AO2 SLP100 T02330228 TSNO
Observed Flight Rules
Jun-22 @ 04:56 UTC (53 minutes ago) Visual Flight Rules
Visibility Clouds
10 miles
  • Clear skies
Temperatures Readings
Current 23°C / 73°F
Dewpoint 23°C / 73°F
Humidity 100%
Altimeter 29.83" Hg
Pressure 1010 hPa
Elevation 56
METAR KADF 220456Z AUTO 00000KT 10SM CLR 23/23 A2983 RMK AO2 SLP100 T02330228 TSNO
Observed Flight Rules
Jun-22 @ 04:56 UTC
(53 minutes ago)
VFR
Clouds
  • Clear skies
Temperature Dewpoint
23°C / 73°F 23°C / 73°F
Humidity Altimeter Pressure
100% 29.83" Hg 1010 hPa